sensor_id;sensor_type;location;lat;lon;timestamp;P1;durP1;ratioP1;P2;durP2;ratioP2
4521;SDS011;2273;48.464;11.926;2023-02-01T00:01:55;6.53;;;4.50;;
4521;SDS011;2273;48.464;11.926;2023-02-01T00:04:21;6.38;;;4.63;;
4521;SDS011;2273;48.464;11.926;2023-02-01T00:06:47;8.13;;;4.33;;
4521;SDS011;2273;48.464;11.926;2023-02-01T00:09:12;8.77;;;4.60;;
4521;SDS011;2273;48.464;11.926;2023-02-01T00:11:38;9.90;;;4.40;;
4521;SDS011;2273;48.464;11.926;2023-02-01T00:14:04;6.60;;;4.70;;
4521;SDS011;2273;48.464;11.926;2023-02-01T00:16:29;9.10;;;6.20;;
4521;SDS011;2273;48.464;11.926;2023-02-01T00:18:57;6.95;;;4.55;;
4521;SDS011;2273;48.464;11.926;2023-02-01T00:21:26;9.02;;;4.93;;
4521;SDS011;2273;48.464;11.926;2023-02-01T00:23:52;13.48;;;5.82;;
4521;SDS011;2273;48.464;11.926;2023-02-01T00:26:20;15.80;;;6.33;;
4521;SDS011;2273;48.464;11.926;2023-02-01T00:28:47;21.17;;;7.00;;
4521;SDS011;2273;48.464;11.926;2023-02-01T00:31:13;34.70;;;10.23;;
4521;SDS011;2273;48.464;11.926;2023-02-01T00:33:38;17.00;;;7.50;;
4521;SDS011;2273;48.464;11.926;2023-02-01T00:36:04;8.23;;;5.27;;
4521;SDS011;2273;48.464;11.926;2023-02-01T00:38:32;9.00;;;5.15;;
4521;SDS011;2273;48.464;11.926;2023-02-01T00:41:02;7.57;;;4.80;;
4521;SDS011;2273;48.464;11.926;2023-02-01T00:43:38;8.02;;;5.43;;
4521;SDS011;2273;48.464;11.926;2023-02-01T00:46:04;7.90;;;5.70;;
4521;SDS011;2273;48.464;11.926;2023-02-01T00:48:30;9.97;;;5.40;;
4521;SDS011;2273;48.464;11.926;2023-02-01T00:51:02;9.60;;;5.67;;
4521;SDS011;2273;48.464;11.926;2023-02-01T00:53:32;9.63;;;5.00;;
4521;SDS011;2273;48.464;11.926;2023-02-01T00:55:57;7.73;;;5.10;;
4521;SDS011;2273;48.464;11.926;2023-02-01T00:58:23;13.47;;;5.67;;
4521;SDS011;2273;48.464;11.926;2023-02-01T01:01:00;9.70;;;5.75;;
4521;SDS011;2273;48.464;11.926;2023-02-01T01:03:27;7.72;;;5.57;;
4521;SDS011;2273;48.464;11.926;2023-02-01T01:05:56;11.70;;;6.35;;
4521;SDS011;2273;48.464;11.926;2023-02-01T01:08:22;9.40;;;5.30;;
4521;SDS011;2273;48.464;11.926;2023-02-01T01:10:47;11.00;;;5.40;;
4521;SDS011;2273;48.464;11.926;2023-02-01T01:13:14;6.78;;;5.05;;
4521;SDS011;2273;48.464;11.926;2023-02-01T01:15:40;11.18;;;6.47;;
4521;SDS011;2273;48.464;11.926;2023-02-01T01:18:06;9.18;;;5.35;;
4521;SDS011;2273;48.464;11.926;2023-02-01T01:20:36;8.67;;;5.60;;
4521;SDS011;2273;48.464;11.926;2023-02-01T01:23:03;7.32;;;5.00;;
4521;SDS011;2273;48.464;11.926;2023-02-01T01:25:29;8.45;;;5.00;;
4521;SDS011;2273;48.464;11.926;2023-02-01T01:27:54;8.90;;;5.20;;
4521;SDS011;2273;48.464;11.926;2023-02-01T01:30:20;8.90;;;5.80;;
4521;SDS011;2273;48.464;11.926;2023-02-01T01:32:45;8.03;;;5.50;;
4521;SDS011;2273;48.464;11.926;2023-02-01T01:35:11;8.40;;;4.87;;
4521;SDS011;2273;48.464;11.926;2023-02-01T01:37:36;7.80;;;5.80;;
4521;SDS011;2273;48.464;11.926;2023-02-01T01:40:02;9.77;;;6.07;;
4521;SDS011;2273;48.464;11.926;2023-02-01T01:42:29;7.95;;;5.78;;
4521;SDS011;2273;48.464;11.926;2023-02-01T01:47:23;8.82;;;5.85;;
4521;SDS011;2273;48.464;11.926;2023-02-01T01:49:50;7.93;;;5.35;;
4521;SDS011;2273;48.464;11.926;2023-02-01T01:52:16;7.97;;;5.17;;
4521;SDS011;2273;48.464;11.926;2023-02-01T01:54:44;9.48;;;5.63;;
4521;SDS011;2273;48.464;11.926;2023-02-01T01:57:17;7.63;;;5.45;;
4521;SDS011;2273;48.464;11.926;2023-02-01T01:59:47;8.77;;;5.22;;
4521;SDS011;2273;48.464;11.926;2023-02-01T02:02:14;9.52;;;5.20;;
4521;SDS011;2273;48.464;11.926;2023-02-01T02:04:40;8.50;;;5.20;;
4521;SDS011;2273;48.464;11.926;2023-02-01T02:07:14;9.40;;;5.33;;
4521;SDS011;2273;48.464;11.926;2023-02-01T02:09:42;7.00;;;4.70;;
4521;SDS011;2273;48.464;11.926;2023-02-01T02:12:08;6.50;;;4.87;;
4521;SDS011;2273;48.464;11.926;2023-02-01T02:14:34;10.57;;;5.60;;
4521;SDS011;2273;48.464;11.926;2023-02-01T02:22:20;8.80;;;5.32;;
4521;SDS011;2273;48.464;11.926;2023-02-01T02:25:43;7.35;;;5.47;;
4521;SDS011;2273;48.464;11.926;2023-02-01T02:36:39;7.85;;;5.63;;
4521;SDS011;2273;48.464;11.926;2023-02-01T02:42:02;10.40;;;7.00;;
4521;SDS011;2273;48.464;11.926;2023-02-01T02:44:57;11.48;;;6.60;;
4521;SDS011;2273;48.464;11.926;2023-02-01T02:50:33;9.23;;;6.45;;
4521;SDS011;2273;48.464;11.926;2023-02-01T02:53:27;11.73;;;6.93;;
4521;SDS011;2273;48.464;11.926;2023-02-01T02:56:14;11.32;;;6.95;;
4521;SDS011;2273;48.464;11.926;2023-02-01T02:58:59;10.10;;;6.63;;
4521;SDS011;2273;48.464;11.926;2023-02-01T03:01:43;11.20;;;7.45;;
4521;SDS011;2273;48.464;11.926;2023-02-01T03:04:27;10.90;;;6.85;;
4521;SDS011;2273;48.464;11.926;2023-02-01T03:06:53;13.27;;;7.10;;
4521;SDS011;2273;48.464;11.926;2023-02-01T03:09:24;10.27;;;6.80;;
4521;SDS011;2273;48.464;11.926;2023-02-01T03:11:53;15.23;;;7.38;;
4521;SDS011;2273;48.464;11.926;2023-02-01T03:14:40;13.25;;;7.47;;
4521;SDS011;2273;48.464;11.926;2023-02-01T03:17:08;9.80;;;6.67;;
4521;SDS011;2273;48.464;11.926;2023-02-01T03:19:39;16.98;;;8.80;;
4521;SDS011;2273;48.464;11.926;2023-02-01T03:22:12;11.07;;;6.93;;
4521;SDS011;2273;48.464;11.926;2023-02-01T03:27:18;10.95;;;6.97;;
4521;SDS011;2273;48.464;11.926;2023-02-01T03:32:20;10.85;;;7.20;;
4521;SDS011;2273;48.464;11.926;2023-02-01T03:34:46;12.20;;;7.83;;
4521;SDS011;2273;48.464;11.926;2023-02-01T03:37:14;16.23;;;7.70;;
4521;SDS011;2273;48.464;11.926;2023-02-01T03:39:47;15.13;;;7.60;;
4521;SDS011;2273;48.464;11.926;2023-02-01T03:42:19;11.50;;;7.10;;
4521;SDS011;2273;48.464;11.926;2023-02-01T03:44:51;12.75;;;7.40;;
4521;SDS011;2273;48.464;11.926;2023-02-01T03:47:20;10.52;;;7.55;;
4521;SDS011;2273;48.464;11.926;2023-02-01T03:49:52;10.45;;;7.18;;
4521;SDS011;2273;48.464;11.926;2023-02-01T03:52:24;12.25;;;7.53;;
4521;SDS011;2273;48.464;11.926;2023-02-01T03:54:54;10.05;;;7.18;;
4521;SDS011;2273;48.464;11.926;2023-02-01T03:57:22;10.90;;;7.53;;
4521;SDS011;2273;48.464;11.926;2023-02-01T03:59:52;11.93;;;6.93;;
4521;SDS011;2273;48.464;11.926;2023-02-01T04:02:18;10.87;;;7.40;;
4521;SDS011;2273;48.464;11.926;2023-02-01T04:04:43;12.73;;;7.20;;
4521;SDS011;2273;48.464;11.926;2023-02-01T04:07:10;12.13;;;7.15;;
4521;SDS011;2273;48.464;11.926;2023-02-01T04:09:35;10.60;;;7.43;;
4521;SDS011;2273;48.464;11.926;2023-02-01T04:12:01;9.57;;;6.70;;
4521;SDS011;2273;48.464;11.926;2023-02-01T04:14:27;15.23;;;7.63;;
4521;SDS011;2273;48.464;11.926;2023-02-01T04:16:52;14.57;;;7.60;;
4521;SDS011;2273;48.464;11.926;2023-02-01T04:19:18;12.77;;;7.53;;
4521;SDS011;2273;48.464;11.926;2023-02-01T04:21:43;12.60;;;8.20;;
4521;SDS011;2273;48.464;11.926;2023-02-01T04:24:09;10.30;;;7.30;;
4521;SDS011;2273;48.464;11.926;2023-02-01T04:26:35;11.98;;;7.20;;
4521;SDS011;2273;48.464;11.926;2023-02-01T04:29:00;11.63;;;7.20;;
4521;SDS011;2273;48.464;11.926;2023-02-01T04:31:26;11.33;;;6.93;;
4521;SDS011;2273;48.464;11.926;2023-02-01T04:33:52;11.25;;;6.95;;
4521;SDS011;2273;48.464;11.926;2023-02-01T04:36:19;9.85;;;6.97;;
4521;SDS011;2273;48.464;11.926;2023-02-01T04:38:48;10.25;;;6.30;;
4521;SDS011;2273;48.464;11.926;2023-02-01T04:41:14;9.27;;;6.18;;
4521;SDS011;2273;48.464;11.926;2023-02-01T04:43:44;10.70;;;6.88;;
4521;SDS011;2273;48.464;11.926;2023-02-01T04:46:12;8.48;;;5.93;;
4521;SDS011;2273;48.464;11.926;2023-02-01T04:48:37;9.10;;;6.40;;
4521;SDS011;2273;48.464;11.926;2023-02-01T04:51:03;9.70;;;6.63;;
4521;SDS011;2273;48.464;11.926;2023-02-01T04:53:28;10.50;;;7.13;;
4521;SDS011;2273;48.464;11.926;2023-02-01T04:55:55;9.43;;;5.70;;
4521;SDS011;2273;48.464;11.926;2023-02-01T04:58:20;8.93;;;6.00;;
4521;SDS011;2273;48.464;11.926;2023-02-01T05:00:46;8.83;;;6.37;;
4521;SDS011;2273;48.464;11.926;2023-02-01T05:03:11;9.57;;;6.00;;
4521;SDS011;2273;48.464;11.926;2023-02-01T05:05:36;8.93;;;6.20;;
4521;SDS011;2273;48.464;11.926;2023-02-01T05:08:02;10.10;;;5.93;;
4521;SDS011;2273;48.464;11.926;2023-02-01T05:10:27;7.63;;;5.70;;
4521;SDS011;2273;48.464;11.926;2023-02-01T05:12:53;10.03;;;5.63;;
4521;SDS011;2273;48.464;11.926;2023-02-01T05:15:37;9.75;;;6.18;;
4521;SDS011;2273;48.464;11.926;2023-02-01T05:18:02;9.90;;;6.40;;
4521;SDS011;2273;48.464;11.926;2023-02-01T05:20:28;7.00;;;5.73;;
4521;SDS011;2273;48.464;11.926;2023-02-01T05:22:53;6.90;;;5.60;;
4521;SDS011;2273;48.464;11.926;2023-02-01T05:25:19;6.93;;;5.43;;
4521;SDS011;2273;48.464;11.926;2023-02-01T05:27:44;7.27;;;5.00;;
4521;SDS011;2273;48.464;11.926;2023-02-01T05:30:10;7.87;;;5.53;;
4521;SDS011;2273;48.464;11.926;2023-02-01T05:32:36;8.40;;;6.22;;
4521;SDS011;2273;48.464;11.926;2023-02-01T05:35:01;7.80;;;5.40;;
4521;SDS011;2273;48.464;11.926;2023-02-01T05:37:27;8.87;;;6.17;;
4521;SDS011;2273;48.464;11.926;2023-02-01T05:39:52;8.27;;;4.83;;
4521;SDS011;2273;48.464;11.926;2023-02-01T05:42:18;6.80;;;5.37;;
4521;SDS011;2273;48.464;11.926;2023-02-01T05:44:43;6.70;;;4.80;;
4521;SDS011;2273;48.464;11.926;2023-02-01T05:47:09;7.40;;;5.30;;
4521;SDS011;2273;48.464;11.926;2023-02-01T05:49:34;7.70;;;5.70;;
4521;SDS011;2273;48.464;11.926;2023-02-01T05:52:00;9.60;;;5.37;;
4521;SDS011;2273;48.464;11.926;2023-02-01T05:54:26;7.13;;;5.83;;
4521;SDS011;2273;48.464;11.926;2023-02-01T05:56:51;7.63;;;5.73;;
4521;SDS011;2273;48.464;11.926;2023-02-01T05:59:17;12.20;;;4.73;;
4521;SDS011;2273;48.464;11.926;2023-02-01T06:01:42;7.33;;;5.27;;
4521;SDS011;2273;48.464;11.926;2023-02-01T06:04:08;7.60;;;5.10;;
4521;SDS011;2273;48.464;11.926;2023-02-01T06:06:33;8.50;;;5.60;;
4521;SDS011;2273;48.464;11.926;2023-02-01T06:08:59;6.63;;;5.23;;
4521;SDS011;2273;48.464;11.926;2023-02-01T06:11:25;9.87;;;5.77;;
4521;SDS011;2273;48.464;11.926;2023-02-01T06:13:50;6.30;;;5.13;;
4521;SDS011;2273;48.464;11.926;2023-02-01T06:16:16;7.37;;;5.10;;
4521;SDS011;2273;48.464;11.926;2023-02-01T06:18:41;8.40;;;5.73;;
4521;SDS011;2273;48.464;11.926;2023-02-01T06:21:07;7.03;;;5.23;;
4521;SDS011;2273;48.464;11.926;2023-02-01T06:23:33;9.13;;;5.73;;
4521;SDS011;2273;48.464;11.926;2023-02-01T06:25:59;6.30;;;4.70;;
4521;SDS011;2273;48.464;11.926;2023-02-01T06:28:27;7.38;;;5.65;;
4521;SDS011;2273;48.464;11.926;2023-02-01T06:30:53;8.35;;;5.53;;
4521;SDS011;2273;48.464;11.926;2023-02-01T06:33:18;7.70;;;4.77;;
4521;SDS011;2273;48.464;11.926;2023-02-01T06:35:44;11.90;;;6.20;;
4521;SDS011;2273;48.464;11.926;2023-02-01T06:38:10;9.20;;;6.07;;
4521;SDS011;2273;48.464;11.926;2023-02-01T06:40:36;9.20;;;4.85;;
4521;SDS011;2273;48.464;11.926;2023-02-01T06:43:02;10.95;;;6.10;;
4521;SDS011;2273;48.464;11.926;2023-02-01T06:45:28;7.80;;;5.93;;
4521;SDS011;2273;48.464;11.926;2023-02-01T06:47:53;7.47;;;5.07;;
4521;SDS011;2273;48.464;11.926;2023-02-01T06:50:19;10.57;;;5.47;;
4521;SDS011;2273;48.464;11.926;2023-02-01T06:52:45;8.02;;;5.40;;
4521;SDS011;2273;48.464;11.926;2023-02-01T06:55:11;7.83;;;5.40;;
4521;SDS011;2273;48.464;11.926;2023-02-01T06:57:36;8.57;;;5.47;;
4521;SDS011;2273;48.464;11.926;2023-02-01T07:00:02;8.13;;;5.30;;
4521;SDS011;2273;48.464;11.926;2023-02-01T07:02:29;10.45;;;5.40;;
4521;SDS011;2273;48.464;11.926;2023-02-01T07:04:54;7.20;;;4.87;;
4521;SDS011;2273;48.464;11.926;2023-02-01T07:07:19;7.17;;;4.77;;
4521;SDS011;2273;48.464;11.926;2023-02-01T07:09:47;8.23;;;5.18;;
4521;SDS011;2273;48.464;11.926;2023-02-01T07:12:15;10.27;;;5.18;;
4521;SDS011;2273;48.464;11.926;2023-02-01T07:14:41;7.53;;;5.00;;
4521;SDS011;2273;48.464;11.926;2023-02-01T07:17:06;6.67;;;4.60;;
4521;SDS011;2273;48.464;11.926;2023-02-01T07:19:32;6.57;;;5.10;;
4521;SDS011;2273;48.464;11.926;2023-02-01T07:21:57;6.60;;;4.90;;
4521;SDS011;2273;48.464;11.926;2023-02-01T07:24:23;8.70;;;4.63;;
4521;SDS011;2273;48.464;11.926;2023-02-01T07:26:48;7.80;;;4.73;;
4521;SDS011;2273;48.464;11.926;2023-02-01T07:29:16;6.13;;;4.47;;
4521;SDS011;2273;48.464;11.926;2023-02-01T07:31:42;8.88;;;4.78;;
4521;SDS011;2273;48.464;11.926;2023-02-01T07:34:07;6.63;;;4.90;;
4521;SDS011;2273;48.464;11.926;2023-02-01T07:36:32;8.10;;;5.20;;
4521;SDS011;2273;48.464;11.926;2023-02-01T07:38:59;9.97;;;5.30;;
4521;SDS011;2273;48.464;11.926;2023-02-01T07:41:24;8.27;;;4.87;;
4521;SDS011;2273;48.464;11.926;2023-02-01T07:43:52;5.70;;;4.50;;
4521;SDS011;2273;48.464;11.926;2023-02-01T07:46:18;6.80;;;5.07;;
4521;SDS011;2273;48.464;11.926;2023-02-01T07:48:43;8.37;;;5.50;;
4521;SDS011;2273;48.464;11.926;2023-02-01T07:51:10;5.97;;;4.43;;
4521;SDS011;2273;48.464;11.926;2023-02-01T07:53:39;8.05;;;5.88;;
4521;SDS011;2273;48.464;11.926;2023-02-01T07:56:09;7.10;;;5.33;;
4521;SDS011;2273;48.464;11.926;2023-02-01T07:58:36;6.70;;;4.72;;
4521;SDS011;2273;48.464;11.926;2023-02-01T08:01:01;9.53;;;5.97;;
4521;SDS011;2273;48.464;11.926;2023-02-01T08:03:46;13.52;;;8.25;;
4521;SDS011;2273;48.464;11.926;2023-02-01T08:06:15;6.38;;;5.13;;
4521;SDS011;2273;48.464;11.926;2023-02-01T08:08:40;6.63;;;4.90;;
4521;SDS011;2273;48.464;11.926;2023-02-01T08:11:08;6.80;;;5.00;;
4521;SDS011;2273;48.464;11.926;2023-02-01T08:13:33;7.43;;;5.00;;
4521;SDS011;2273;48.464;11.926;2023-02-01T08:16:00;8.60;;;5.32;;
4521;SDS011;2273;48.464;11.926;2023-02-01T08:18:27;8.57;;;5.60;;
4521;SDS011;2273;48.464;11.926;2023-02-01T08:20:53;6.77;;;5.33;;
4521;SDS011;2273;48.464;11.926;2023-02-01T08:23:19;7.90;;;5.67;;
4521;SDS011;2273;48.464;11.926;2023-02-01T08:25:45;6.40;;;4.80;;
4521;SDS011;2273;48.464;11.926;2023-02-01T08:28:11;7.20;;;5.13;;
4521;SDS011;2273;48.464;11.926;2023-02-01T08:30:37;8.87;;;5.57;;
4521;SDS011;2273;48.464;11.926;2023-02-01T08:33:04;6.82;;;5.07;;
4521;SDS011;2273;48.464;11.926;2023-02-01T08:35:32;8.10;;;5.00;;
4521;SDS011;2273;48.464;11.926;2023-02-01T08:37:57;6.95;;;4.80;;
4521;SDS011;2273;48.464;11.926;2023-02-01T08:40:23;6.17;;;4.50;;
4521;SDS011;2273;48.464;11.926;2023-02-01T08:42:48;7.77;;;5.43;;
4521;SDS011;2273;48.464;11.926;2023-02-01T08:45:26;7.50;;;5.50;;
4521;SDS011;2273;48.464;11.926;2023-02-01T08:47:57;7.43;;;4.80;;
4521;SDS011;2273;48.464;11.926;2023-02-01T08:50:22;8.13;;;4.83;;
4521;SDS011;2273;48.464;11.926;2023-02-01T08:52:48;7.63;;;4.55;;
4521;SDS011;2273;48.464;11.926;2023-02-01T08:55:14;6.27;;;4.53;;
4521;SDS011;2273;48.464;11.926;2023-02-01T08:57:40;6.50;;;4.40;;
4521;SDS011;2273;48.464;11.926;2023-02-01T09:00:07;7.57;;;5.03;;
4521;SDS011;2273;48.464;11.926;2023-02-01T09:02:34;7.30;;;4.75;;
4521;SDS011;2273;48.464;11.926;2023-02-01T09:05:00;5.83;;;4.67;;
4521;SDS011;2273;48.464;11.926;2023-02-01T09:07:25;7.03;;;4.73;;
4521;SDS011;2273;48.464;11.926;2023-02-01T09:09:51;5.20;;;3.67;;
4521;SDS011;2273;48.464;11.926;2023-02-01T09:12:17;7.53;;;4.20;;
4521;SDS011;2273;48.464;11.926;2023-02-01T09:14:43;5.80;;;4.17;;
4521;SDS011;2273;48.464;11.926;2023-02-01T09:17:08;4.53;;;4.07;;
4521;SDS011;2273;48.464;11.926;2023-02-01T09:19:34;4.90;;;3.70;;
4521;SDS011;2273;48.464;11.926;2023-02-01T09:21:59;4.10;;;3.40;;
4521;SDS011;2273;48.464;11.926;2023-02-01T09:24:24;8.73;;;4.50;;
4521;SDS011;2273;48.464;11.926;2023-02-01T09:26:50;6.80;;;4.50;;
4521;SDS011;2273;48.464;11.926;2023-02-01T09:29:15;9.40;;;3.90;;
4521;SDS011;2273;48.464;11.926;2023-02-01T09:31:41;9.43;;;4.03;;
4521;SDS011;2273;48.464;11.926;2023-02-01T09:34:06;5.20;;;4.00;;
4521;SDS011;2273;48.464;11.926;2023-02-01T09:36:32;6.53;;;3.83;;
4521;SDS011;2273;48.464;11.926;2023-02-01T09:38:58;9.50;;;4.13;;
4521;SDS011;2273;48.464;11.926;2023-02-01T09:41:26;6.07;;;4.80;;
4521;SDS011;2273;48.464;11.926;2023-02-01T09:46:54;5.43;;;3.90;;
4521;SDS011;2273;48.464;11.926;2023-02-01T09:49:27;5.90;;;4.03;;
4521;SDS011;2273;48.464;11.926;2023-02-01T09:51:54;4.67;;;3.87;;
4521;SDS011;2273;48.464;11.926;2023-02-01T09:54:29;7.75;;;4.10;;
4521;SDS011;2273;48.464;11.926;2023-02-01T09:57:11;6.97;;;4.82;;
4521;SDS011;2273;48.464;11.926;2023-02-01T10:02:10;6.03;;;4.53;;
4521;SDS011;2273;48.464;11.926;2023-02-01T10:04:37;5.37;;;4.00;;
4521;SDS011;2273;48.464;11.926;2023-02-01T10:09:47;7.07;;;5.17;;
4521;SDS011;2273;48.464;11.926;2023-02-01T10:15:17;7.37;;;3.80;;
4521;SDS011;2273;48.464;11.926;2023-02-01T10:20:49;6.23;;;3.70;;
4521;SDS011;2273;48.464;11.926;2023-02-01T10:26:21;4.82;;;3.75;;
4521;SDS011;2273;48.464;11.926;2023-02-01T10:28:52;5.30;;;3.90;;
4521;SDS011;2273;48.464;11.926;2023-02-01T10:31:19;6.43;;;4.20;;
4521;SDS011;2273;48.464;11.926;2023-02-01T10:33:50;6.07;;;3.80;;
4521;SDS011;2273;48.464;11.926;2023-02-01T10:36:19;3.73;;;3.30;;
4521;SDS011;2273;48.464;11.926;2023-02-01T10:38:48;5.33;;;3.70;;
4521;SDS011;2273;48.464;11.926;2023-02-01T10:41:18;4.47;;;3.35;;
4521;SDS011;2273;48.464;11.926;2023-02-01T10:43:45;4.77;;;3.30;;
4521;SDS011;2273;48.464;11.926;2023-02-01T10:46:14;3.33;;;2.80;;
4521;SDS011;2273;48.464;11.926;2023-02-01T10:48:39;12.70;;;3.80;;
4521;SDS011;2273;48.464;11.926;2023-02-01T10:51:13;7.00;;;3.30;;
4521;SDS011;2273;48.464;11.926;2023-02-01T10:56:26;6.00;;;4.27;;
4521;SDS011;2273;48.464;11.926;2023-02-01T10:59:00;6.00;;;3.40;;
4521;SDS011;2273;48.464;11.926;2023-02-01T11:01:31;5.27;;;3.43;;
4521;SDS011;2273;48.464;11.926;2023-02-01T11:04:00;4.57;;;3.67;;
4521;SDS011;2273;48.464;11.926;2023-02-01T11:08:57;6.40;;;4.90;;
4521;SDS011;2273;48.464;11.926;2023-02-01T11:11:24;6.03;;;3.95;;
4521;SDS011;2273;48.464;11.926;2023-02-01T11:14:00;5.53;;;4.15;;
4521;SDS011;2273;48.464;11.926;2023-02-01T11:16:32;6.07;;;4.10;;
4521;SDS011;2273;48.464;11.926;2023-02-01T11:19:00;6.43;;;3.80;;
4521;SDS011;2273;48.464;11.926;2023-02-01T11:21:25;6.10;;;4.20;;
4521;SDS011;2273;48.464;11.926;2023-02-01T11:23:50;8.53;;;3.73;;
4521;SDS011;2273;48.464;11.926;2023-02-01T11:26:20;7.87;;;5.20;;
4521;SDS011;2273;48.464;11.926;2023-02-01T11:29:32;7.90;;;4.63;;
4521;SDS011;2273;48.464;11.926;2023-02-01T11:31:38;6.17;;;4.50;;
4521;SDS011;2273;48.464;11.926;2023-02-01T11:34:08;5.17;;;3.63;;
4521;SDS011;2273;48.464;11.926;2023-02-01T11:36:37;6.67;;;3.87;;
4521;SDS011;2273;48.464;11.926;2023-02-01T11:39:08;5.67;;;4.00;;
4521;SDS011;2273;48.464;11.926;2023-02-01T11:41:34;4.83;;;3.40;;
4521;SDS011;2273;48.464;11.926;2023-02-01T11:44:15;6.50;;;3.70;;
4521;SDS011;2273;48.464;11.926;2023-02-01T11:46:45;6.75;;;3.85;;
4521;SDS011;2273;48.464;11.926;2023-02-01T11:49:26;7.00;;;3.80;;
4521;SDS011;2273;48.464;11.926;2023-02-01T11:54:40;8.07;;;4.97;;
4521;SDS011;2273;48.464;11.926;2023-02-01T12:00:17;5.67;;;3.80;;
4521;SDS011;2273;48.464;11.926;2023-02-01T12:05:39;9.47;;;5.07;;
4521;SDS011;2273;48.464;11.926;2023-02-01T12:11:20;6.70;;;4.40;;
4521;SDS011;2273;48.464;11.926;2023-02-01T12:16:26;14.23;;;5.13;;
4521;SDS011;2273;48.464;11.926;2023-02-01T12:29:33;9.50;;;4.10;;
4521;SDS011;2273;48.464;11.926;2023-02-01T12:38:02;11.13;;;4.93;;
4521;SDS011;2273;48.464;11.926;2023-02-01T12:40:57;8.40;;;5.20;;
4521;SDS011;2273;48.464;11.926;2023-02-01T12:46:23;13.00;;;4.80;;
4521;SDS011;2273;48.464;11.926;2023-02-01T12:51:36;6.33;;;4.30;;
4521;SDS011;2273;48.464;11.926;2023-02-01T12:56:43;7.07;;;4.60;;
4521;SDS011;2273;48.464;11.926;2023-02-01T12:59:21;9.67;;;4.83;;
4521;SDS011;2273;48.464;11.926;2023-02-01T13:01:54;8.10;;;4.83;;
4521;SDS011;2273;48.464;11.926;2023-02-01T13:04:29;8.23;;;4.90;;
4521;SDS011;2273;48.464;11.926;2023-02-01T13:07:00;8.03;;;4.63;;
4521;SDS011;2273;48.464;11.926;2023-02-01T13:12:12;11.03;;;4.70;;
4521;SDS011;2273;48.464;11.926;2023-02-01T13:14:46;7.78;;;4.68;;
4521;SDS011;2273;48.464;11.926;2023-02-01T13:17:16;6.22;;;4.40;;
4521;SDS011;2273;48.464;11.926;2023-02-01T13:19:48;8.37;;;4.60;;
4521;SDS011;2273;48.464;11.926;2023-02-01T13:22:37;9.60;;;4.90;;
4521;SDS011;2273;48.464;11.926;2023-02-01T13:25:13;9.30;;;4.50;;
4521;SDS011;2273;48.464;11.926;2023-02-01T13:27:44;7.88;;;4.25;;
4521;SDS011;2273;48.464;11.926;2023-02-01T13:30:18;7.70;;;4.07;;
4521;SDS011;2273;48.464;11.926;2023-02-01T13:40:41;5.70;;;3.80;;
4521;SDS011;2273;48.464;11.926;2023-02-01T13:43:12;11.00;;;5.13;;
4521;SDS011;2273;48.464;11.926;2023-02-01T13:46:12;4.37;;;3.63;;
4521;SDS011;2273;48.464;11.926;2023-02-01T13:51:03;9.23;;;4.77;;
4521;SDS011;2273;48.464;11.926;2023-02-01T13:53:30;17.17;;;4.30;;
4521;SDS011;2273;48.464;11.926;2023-02-01T13:55:58;13.10;;;4.43;;
4521;SDS011;2273;48.464;11.926;2023-02-01T13:58:30;9.80;;;4.30;;
4521;SDS011;2273;48.464;11.926;2023-02-01T14:03:49;11.73;;;4.90;;
4521;SDS011;2273;48.464;11.926;2023-02-01T14:06:38;9.27;;;4.57;;
4521;SDS011;2273;48.464;11.926;2023-02-01T14:19:35;14.67;;;5.37;;
4521;SDS011;2273;48.464;11.926;2023-02-01T14:22:01;11.63;;;4.87;;
4521;SDS011;2273;48.464;11.926;2023-02-01T14:24:52;7.72;;;3.90;;
4521;SDS011;2273;48.464;11.926;2023-02-01T14:27:20;12.87;;;3.87;;
4521;SDS011;2273;48.464;11.926;2023-02-01T14:29:51;7.87;;;3.80;;
4521;SDS011;2273;48.464;11.926;2023-02-01T14:32:44;8.90;;;4.40;;
4521;SDS011;2273;48.464;11.926;2023-02-01T14:35:18;11.20;;;4.13;;
4521;SDS011;2273;48.464;11.926;2023-02-01T14:37:45;6.20;;;3.90;;
4521;SDS011;2273;48.464;11.926;2023-02-01T14:42:44;7.33;;;3.57;;
4521;SDS011;2273;48.464;11.926;2023-02-01T14:47:42;9.63;;;4.20;;
4521;SDS011;2273;48.464;11.926;2023-02-01T14:52:39;11.83;;;3.97;;
4521;SDS011;2273;48.464;11.926;2023-02-01T14:55:21;10.73;;;4.13;;
4521;SDS011;2273;48.464;11.926;2023-02-01T14:57:51;7.90;;;4.13;;
4521;SDS011;2273;48.464;11.926;2023-02-01T15:00:21;7.70;;;4.47;;
4521;SDS011;2273;48.464;11.926;2023-02-01T15:02:49;10.60;;;3.40;;
4521;SDS011;2273;48.464;11.926;2023-02-01T15:05:31;5.93;;;3.30;;
4521;SDS011;2273;48.464;11.926;2023-02-01T15:08:13;6.88;;;4.30;;
4521;SDS011;2273;48.464;11.926;2023-02-01T15:10:46;7.57;;;3.67;;
4521;SDS011;2273;48.464;11.926;2023-02-01T15:13:18;6.10;;;4.17;;
4521;SDS011;2273;48.464;11.926;2023-02-01T15:16:00;14.30;;;3.27;;
4521;SDS011;2273;48.464;11.926;2023-02-01T15:18:43;7.20;;;3.90;;
4521;SDS011;2273;48.464;11.926;2023-02-01T15:21:20;5.97;;;3.20;;
4521;SDS011;2273;48.464;11.926;2023-02-01T15:23:47;6.03;;;3.38;;
4521;SDS011;2273;48.464;11.926;2023-02-01T15:26:29;5.32;;;2.92;;
4521;SDS011;2273;48.464;11.926;2023-02-01T15:28:57;10.83;;;4.43;;
4521;SDS011;2273;48.464;11.926;2023-02-01T15:31:37;4.20;;;3.17;;
4521;SDS011;2273;48.464;11.926;2023-02-01T15:34:09;4.83;;;3.33;;
4521;SDS011;2273;48.464;11.926;2023-02-01T15:36:36;7.10;;;3.07;;
4521;SDS011;2273;48.464;11.926;2023-02-01T15:41:56;5.40;;;3.07;;
4521;SDS011;2273;48.464;11.926;2023-02-01T15:44:42;6.13;;;3.00;;
4521;SDS011;2273;48.464;11.926;2023-02-01T15:47:23;9.80;;;3.83;;
4521;SDS011;2273;48.464;11.926;2023-02-01T15:49:51;11.27;;;3.45;;
4521;SDS011;2273;48.464;11.926;2023-02-01T15:52:26;6.63;;;3.50;;
4521;SDS011;2273;48.464;11.926;2023-02-01T15:54:56;9.15;;;3.28;;
4521;SDS011;2273;48.464;11.926;2023-02-01T15:57:28;5.30;;;3.03;;
4521;SDS011;2273;48.464;11.926;2023-02-01T16:00:03;7.50;;;3.70;;
4521;SDS011;2273;48.464;11.926;2023-02-01T16:02:42;8.83;;;4.03;;
4521;SDS011;2273;48.464;11.926;2023-02-01T16:05:27;14.95;;;3.70;;
4521;SDS011;2273;48.464;11.926;2023-02-01T16:08:00;11.33;;;3.47;;
4521;SDS011;2273;48.464;11.926;2023-02-01T16:10:29;9.10;;;4.23;;
4521;SDS011;2273;48.464;11.926;2023-02-01T16:12:55;7.43;;;3.77;;
4521;SDS011;2273;48.464;11.926;2023-02-01T16:15:26;10.25;;;4.40;;
4521;SDS011;2273;48.464;11.926;2023-02-01T16:17:54;9.47;;;4.20;;
4521;SDS011;2273;48.464;11.926;2023-02-01T16:20:19;8.47;;;4.40;;
4521;SDS011;2273;48.464;11.926;2023-02-01T16:22:45;11.83;;;3.90;;
4521;SDS011;2273;48.464;11.926;2023-02-01T16:25:10;7.73;;;4.53;;
4521;SDS011;2273;48.464;11.926;2023-02-01T16:27:36;12.07;;;5.60;;
4521;SDS011;2273;48.464;11.926;2023-02-01T16:30:01;8.67;;;4.23;;
4521;SDS011;2273;48.464;11.926;2023-02-01T16:32:27;12.53;;;4.20;;
4521;SDS011;2273;48.464;11.926;2023-02-01T16:34:52;7.20;;;3.90;;
4521;SDS011;2273;48.464;11.926;2023-02-01T16:37:19;7.77;;;4.80;;
4521;SDS011;2273;48.464;11.926;2023-02-01T16:39:46;8.90;;;3.78;;
4521;SDS011;2273;48.464;11.926;2023-02-01T16:42:13;8.33;;;4.17;;
4521;SDS011;2273;48.464;11.926;2023-02-01T16:44:39;11.52;;;4.45;;
4521;SDS011;2273;48.464;11.926;2023-02-01T16:47:11;8.30;;;3.70;;
4521;SDS011;2273;48.464;11.926;2023-02-01T16:49:40;5.10;;;3.03;;
4521;SDS011;2273;48.464;11.926;2023-02-01T16:52:08;9.68;;;3.83;;
4521;SDS011;2273;48.464;11.926;2023-02-01T16:54:39;14.73;;;3.53;;
4521;SDS011;2273;48.464;11.926;2023-02-01T16:57:04;9.43;;;3.50;;
4521;SDS011;2273;48.464;11.926;2023-02-01T16:59:29;8.70;;;2.80;;
4521;SDS011;2273;48.464;11.926;2023-02-01T17:01:55;17.53;;;3.60;;
4521;SDS011;2273;48.464;11.926;2023-02-01T17:04:20;9.07;;;3.53;;
4521;SDS011;2273;48.464;11.926;2023-02-01T17:06:46;10.13;;;3.20;;
4521;SDS011;2273;48.464;11.926;2023-02-01T17:09:13;11.37;;;3.60;;
4521;SDS011;2273;48.464;11.926;2023-02-01T17:11:39;6.47;;;3.77;;
4521;SDS011;2273;48.464;11.926;2023-02-01T17:14:15;7.00;;;3.30;;
4521;SDS011;2273;48.464;11.926;2023-02-01T17:16:42;5.73;;;3.47;;